sensor_id;sensor_type;location;lat;lon;timestamp;P1;durP1;ratioP1;P2;durP2;ratioP2
44862;SDS011;30597;49.628;10.850;2023-02-18T00:02:06;1.60;;;1.47;;
44862;SDS011;30597;49.628;10.850;2023-02-18T00:04:31;1.70;;;1.60;;
44862;SDS011;30597;49.628;10.850;2023-02-18T00:06:57;1.30;;;1.20;;
44862;SDS011;30597;49.628;10.850;2023-02-18T00:09:23;1.20;;;1.10;;
44862;SDS011;30597;49.628;10.850;2023-02-18T00:11:50;1.27;;;1.17;;
44862;SDS011;30597;49.628;10.850;2023-02-18T00:14:15;1.63;;;1.30;;
44862;SDS011;30597;49.628;10.850;2023-02-18T00:16:42;1.40;;;1.30;;
44862;SDS011;30597;49.628;10.850;2023-02-18T00:19:13;1.80;;;1.40;;
44862;SDS011;30597;49.628;10.850;2023-02-18T00:21:40;1.30;;;1.20;;
44862;SDS011;30597;49.628;10.850;2023-02-18T00:24:07;1.20;;;1.10;;
44862;SDS011;30597;49.628;10.850;2023-02-18T00:26:34;1.50;;;1.40;;
44862;SDS011;30597;49.628;10.850;2023-02-18T00:29:00;1.20;;;1.10;;
44862;SDS011;30597;49.628;10.850;2023-02-18T00:31:30;1.10;;;1.00;;
44862;SDS011;30597;49.628;10.850;2023-02-18T00:33:59;1.37;;;1.27;;
44862;SDS011;30597;49.628;10.850;2023-02-18T00:36:26;2.40;;;1.93;;
44862;SDS011;30597;49.628;10.850;2023-02-18T00:38:53;1.37;;;1.20;;
44862;SDS011;30597;49.628;10.850;2023-02-18T00:41:21;1.30;;;1.20;;
44862;SDS011;30597;49.628;10.850;2023-02-18T00:43:49;1.40;;;1.30;;
44862;SDS011;30597;49.628;10.850;2023-02-18T00:46:14;1.20;;;1.10;;
44862;SDS011;30597;49.628;10.850;2023-02-18T00:48:40;1.50;;;1.40;;
44862;SDS011;30597;49.628;10.850;2023-02-18T00:51:06;2.03;;;1.20;;
44862;SDS011;30597;49.628;10.850;2023-02-18T00:53:32;1.43;;;1.17;;
44862;SDS011;30597;49.628;10.850;2023-02-18T00:55:58;1.47;;;1.30;;
44862;SDS011;30597;49.628;10.850;2023-02-18T00:58:24;1.30;;;1.00;;
44862;SDS011;30597;49.628;10.850;2023-02-18T01:00:50;1.10;;;1.00;;
44862;SDS011;30597;49.628;10.850;2023-02-18T01:03:15;1.20;;;1.10;;
44862;SDS011;30597;49.628;10.850;2023-02-18T01:05:41;1.77;;;1.03;;
44862;SDS011;30597;49.628;10.850;2023-02-18T01:08:07;1.93;;;1.10;;
44862;SDS011;30597;49.628;10.850;2023-02-18T01:10:34;1.57;;;1.30;;
44862;SDS011;30597;49.628;10.850;2023-02-18T01:13:04;1.40;;;1.27;;
44862;SDS011;30597;49.628;10.850;2023-02-18T01:15:29;1.13;;;1.03;;
44862;SDS011;30597;49.628;10.850;2023-02-18T01:17:55;1.30;;;1.20;;
44862;SDS011;30597;49.628;10.850;2023-02-18T01:20:21;1.13;;;1.03;;
44862;SDS011;30597;49.628;10.850;2023-02-18T01:22:46;1.33;;;1.20;;
44862;SDS011;30597;49.628;10.850;2023-02-18T01:25:12;1.10;;;1.00;;
44862;SDS011;30597;49.628;10.850;2023-02-18T01:27:38;1.20;;;1.10;;
44862;SDS011;30597;49.628;10.850;2023-02-18T01:30:04;1.67;;;1.57;;
44862;SDS011;30597;49.628;10.850;2023-02-18T01:32:31;1.37;;;1.27;;
44862;SDS011;30597;49.628;10.850;2023-02-18T01:34:59;1.40;;;1.23;;
44862;SDS011;30597;49.628;10.850;2023-02-18T01:37:25;1.40;;;1.30;;
44862;SDS011;30597;49.628;10.850;2023-02-18T01:39:51;1.40;;;1.00;;
44862;SDS011;30597;49.628;10.850;2023-02-18T01:42:20;1.27;;;1.10;;
44862;SDS011;30597;49.628;10.850;2023-02-18T01:44:48;1.43;;;1.33;;
44862;SDS011;30597;49.628;10.850;2023-02-18T01:47:14;1.10;;;1.00;;
44862;SDS011;30597;49.628;10.850;2023-02-18T01:49:41;1.10;;;1.03;;
44862;SDS011;30597;49.628;10.850;2023-02-18T01:52:31;1.53;;;1.30;;
44862;SDS011;30597;49.628;10.850;2023-02-18T01:54:57;1.30;;;1.00;;
44862;SDS011;30597;49.628;10.850;2023-02-18T01:57:24;0.97;;;0.90;;
44862;SDS011;30597;49.628;10.850;2023-02-18T01:59:54;1.30;;;1.00;;
44862;SDS011;30597;49.628;10.850;2023-02-18T02:02:23;1.10;;;1.00;;
44862;SDS011;30597;49.628;10.850;2023-02-18T02:04:51;1.20;;;1.10;;
44862;SDS011;30597;49.628;10.850;2023-02-18T02:07:17;0.93;;;0.93;;
44862;SDS011;30597;49.628;10.850;2023-02-18T02:09:44;1.10;;;1.00;;
44862;SDS011;30597;49.628;10.850;2023-02-18T02:12:27;0.83;;;0.83;;
44862;SDS011;30597;49.628;10.850;2023-02-18T02:23:29;1.30;;;1.20;;
44862;SDS011;30597;49.628;10.850;2023-02-18T02:37:46;1.10;;;0.97;;
44862;SDS011;30597;49.628;10.850;2023-02-18T02:45:54;1.07;;;0.97;;
44862;SDS011;30597;49.628;10.850;2023-02-18T02:48:35;1.10;;;0.90;;
44862;SDS011;30597;49.628;10.850;2023-02-18T02:53:35;0.97;;;0.90;;
44862;SDS011;30597;49.628;10.850;2023-02-18T02:56:03;1.10;;;1.00;;
44862;SDS011;30597;49.628;10.850;2023-02-18T02:58:29;0.90;;;0.73;;
44862;SDS011;30597;49.628;10.850;2023-02-18T03:06:37;0.90;;;0.80;;
44862;SDS011;30597;49.628;10.850;2023-02-18T03:09:38;1.20;;;1.10;;
44862;SDS011;30597;49.628;10.850;2023-02-18T03:12:35;1.03;;;0.93;;
44862;SDS011;30597;49.628;10.850;2023-02-18T03:18:00;0.90;;;0.70;;
44862;SDS011;30597;49.628;10.850;2023-02-18T03:20:45;1.27;;;1.17;;
44862;SDS011;30597;49.628;10.850;2023-02-18T03:23:19;0.80;;;0.80;;
44862;SDS011;30597;49.628;10.850;2023-02-18T03:25:51;0.93;;;0.83;;
44862;SDS011;30597;49.628;10.850;2023-02-18T03:28:18;1.00;;;0.90;;
44862;SDS011;30597;49.628;10.850;2023-02-18T03:30:53;0.97;;;0.80;;
44862;SDS011;30597;49.628;10.850;2023-02-18T03:33:25;1.00;;;0.80;;
44862;SDS011;30597;49.628;10.850;2023-02-18T03:35:55;1.40;;;1.10;;
44862;SDS011;30597;49.628;10.850;2023-02-18T03:40:52;0.90;;;0.80;;
44862;SDS011;30597;49.628;10.850;2023-02-18T03:43:19;1.53;;;0.90;;
44862;SDS011;30597;49.628;10.850;2023-02-18T03:45:44;1.20;;;1.10;;
44862;SDS011;30597;49.628;10.850;2023-02-18T03:48:10;0.93;;;0.83;;
44862;SDS011;30597;49.628;10.850;2023-02-18T03:50:35;0.80;;;0.80;;
44862;SDS011;30597;49.628;10.850;2023-02-18T03:53:01;0.73;;;0.73;;
44862;SDS011;30597;49.628;10.850;2023-02-18T03:55:26;0.93;;;0.83;;
44862;SDS011;30597;49.628;10.850;2023-02-18T03:57:52;0.83;;;0.80;;
44862;SDS011;30597;49.628;10.850;2023-02-18T04:00:18;0.83;;;0.77;;
44862;SDS011;30597;49.628;10.850;2023-02-18T04:02:44;1.07;;;0.80;;
44862;SDS011;30597;49.628;10.850;2023-02-18T04:05:10;0.80;;;0.70;;
44862;SDS011;30597;49.628;10.850;2023-02-18T04:07:36;0.97;;;0.90;;
44862;SDS011;30597;49.628;10.850;2023-02-18T04:10:02;1.10;;;0.93;;
44862;SDS011;30597;49.628;10.850;2023-02-18T04:12:28;0.90;;;0.77;;
44862;SDS011;30597;49.628;10.850;2023-02-18T04:14:54;1.33;;;0.80;;
44862;SDS011;30597;49.628;10.850;2023-02-18T04:17:19;0.93;;;0.80;;
44862;SDS011;30597;49.628;10.850;2023-02-18T04:19:45;0.90;;;0.80;;
44862;SDS011;30597;49.628;10.850;2023-02-18T04:22:10;0.90;;;0.87;;
44862;SDS011;30597;49.628;10.850;2023-02-18T04:24:36;1.20;;;1.10;;
44862;SDS011;30597;49.628;10.850;2023-02-18T04:27:02;1.07;;;0.70;;
44862;SDS011;30597;49.628;10.850;2023-02-18T04:29:27;1.10;;;0.83;;
44862;SDS011;30597;49.628;10.850;2023-02-18T04:31:53;0.80;;;0.70;;
44862;SDS011;30597;49.628;10.850;2023-02-18T04:34:18;1.00;;;0.80;;
44862;SDS011;30597;49.628;10.850;2023-02-18T04:36:44;2.33;;;0.90;;
44862;SDS011;30597;49.628;10.850;2023-02-18T04:39:10;1.03;;;0.70;;
44862;SDS011;30597;49.628;10.850;2023-02-18T04:41:35;0.80;;;0.80;;
44862;SDS011;30597;49.628;10.850;2023-02-18T04:44:01;0.90;;;0.80;;
44862;SDS011;30597;49.628;10.850;2023-02-18T04:46:26;0.70;;;0.67;;
44862;SDS011;30597;49.628;10.850;2023-02-18T04:48:52;0.80;;;0.73;;
44862;SDS011;30597;49.628;10.850;2023-02-18T04:51:18;0.70;;;0.63;;
44862;SDS011;30597;49.628;10.850;2023-02-18T04:53:43;1.03;;;0.83;;
44862;SDS011;30597;49.628;10.850;2023-02-18T04:56:10;0.80;;;0.70;;
44862;SDS011;30597;49.628;10.850;2023-02-18T04:58:35;1.03;;;0.83;;
44862;SDS011;30597;49.628;10.850;2023-02-18T05:01:01;0.80;;;0.80;;
44862;SDS011;30597;49.628;10.850;2023-02-18T05:03:28;0.70;;;0.60;;
44862;SDS011;30597;49.628;10.850;2023-02-18T05:05:55;0.70;;;0.70;;
44862;SDS011;30597;49.628;10.850;2023-02-18T05:08:21;0.60;;;0.60;;
44862;SDS011;30597;49.628;10.850;2023-02-18T05:10:46;0.90;;;0.70;;
44862;SDS011;30597;49.628;10.850;2023-02-18T05:13:12;0.97;;;0.87;;
44862;SDS011;30597;49.628;10.850;2023-02-18T05:15:38;1.40;;;1.00;;
44862;SDS011;30597;49.628;10.850;2023-02-18T05:18:03;1.00;;;0.77;;
44862;SDS011;30597;49.628;10.850;2023-02-18T05:20:29;0.80;;;0.70;;
44862;SDS011;30597;49.628;10.850;2023-02-18T05:22:55;0.63;;;0.60;;
44862;SDS011;30597;49.628;10.850;2023-02-18T05:25:21;0.90;;;0.60;;
44862;SDS011;30597;49.628;10.850;2023-02-18T05:27:46;0.97;;;0.70;;
44862;SDS011;30597;49.628;10.850;2023-02-18T05:30:12;0.90;;;0.73;;
44862;SDS011;30597;49.628;10.850;2023-02-18T05:32:38;0.70;;;0.60;;
44862;SDS011;30597;49.628;10.850;2023-02-18T05:35:03;0.70;;;0.57;;
44862;SDS011;30597;49.628;10.850;2023-02-18T05:37:29;0.80;;;0.50;;
44862;SDS011;30597;49.628;10.850;2023-02-18T05:39:55;0.80;;;0.80;;
44862;SDS011;30597;49.628;10.850;2023-02-18T05:42:21;0.80;;;0.57;;
44862;SDS011;30597;49.628;10.850;2023-02-18T05:44:47;0.70;;;0.60;;
44862;SDS011;30597;49.628;10.850;2023-02-18T05:47:13;0.70;;;0.67;;
44862;SDS011;30597;49.628;10.850;2023-02-18T05:49:39;0.80;;;0.57;;
44862;SDS011;30597;49.628;10.850;2023-02-18T05:52:06;0.80;;;0.60;;
44862;SDS011;30597;49.628;10.850;2023-02-18T05:54:32;0.80;;;0.80;;
44862;SDS011;30597;49.628;10.850;2023-02-18T05:56:58;0.80;;;0.60;;
44862;SDS011;30597;49.628;10.850;2023-02-18T05:59:23;0.80;;;0.60;;
44862;SDS011;30597;49.628;10.850;2023-02-18T06:01:49;0.80;;;0.67;;
44862;SDS011;30597;49.628;10.850;2023-02-18T06:04:15;0.70;;;0.53;;
44862;SDS011;30597;49.628;10.850;2023-02-18T06:06:40;0.77;;;0.77;;
44862;SDS011;30597;49.628;10.850;2023-02-18T06:09:07;0.87;;;0.70;;
44862;SDS011;30597;49.628;10.850;2023-02-18T06:11:33;0.90;;;0.80;;
44862;SDS011;30597;49.628;10.850;2023-02-18T06:13:59;0.70;;;0.70;;
44862;SDS011;30597;49.628;10.850;2023-02-18T06:16:25;0.80;;;0.70;;
44862;SDS011;30597;49.628;10.850;2023-02-18T06:18:51;0.80;;;0.60;;
44862;SDS011;30597;49.628;10.850;2023-02-18T06:21:16;0.87;;;0.80;;
44862;SDS011;30597;49.628;10.850;2023-02-18T06:23:42;0.70;;;0.60;;
44862;SDS011;30597;49.628;10.850;2023-02-18T06:26:08;0.87;;;0.77;;
44862;SDS011;30597;49.628;10.850;2023-02-18T06:28:33;0.70;;;0.70;;
44862;SDS011;30597;49.628;10.850;2023-02-18T06:30:59;0.60;;;0.60;;
44862;SDS011;30597;49.628;10.850;2023-02-18T06:33:25;0.80;;;0.67;;
44862;SDS011;30597;49.628;10.850;2023-02-18T06:35:51;0.90;;;0.80;;
44862;SDS011;30597;49.628;10.850;2023-02-18T06:38:19;0.70;;;0.70;;
44862;SDS011;30597;49.628;10.850;2023-02-18T06:40:46;0.80;;;0.63;;
44862;SDS011;30597;49.628;10.850;2023-02-18T06:43:12;0.93;;;0.87;;
44862;SDS011;30597;49.628;10.850;2023-02-18T06:45:37;0.70;;;0.50;;
44862;SDS011;30597;49.628;10.850;2023-02-18T06:48:03;0.80;;;0.80;;
44862;SDS011;30597;49.628;10.850;2023-02-18T06:50:29;0.80;;;0.63;;
44862;SDS011;30597;49.628;10.850;2023-02-18T06:52:54;0.80;;;0.80;;
44862;SDS011;30597;49.628;10.850;2023-02-18T06:55:20;0.80;;;0.70;;
44862;SDS011;30597;49.628;10.850;2023-02-18T06:57:45;0.70;;;0.60;;
44862;SDS011;30597;49.628;10.850;2023-02-18T07:00:11;1.00;;;0.67;;
44862;SDS011;30597;49.628;10.850;2023-02-18T07:02:37;0.70;;;0.57;;
44862;SDS011;30597;49.628;10.850;2023-02-18T07:05:02;0.80;;;0.80;;
44862;SDS011;30597;49.628;10.850;2023-02-18T07:07:29;0.67;;;0.60;;
44862;SDS011;30597;49.628;10.850;2023-02-18T07:09:54;1.03;;;0.80;;
44862;SDS011;30597;49.628;10.850;2023-02-18T07:12:20;0.67;;;0.67;;
44862;SDS011;30597;49.628;10.850;2023-02-18T07:14:45;0.80;;;0.80;;
44862;SDS011;30597;49.628;10.850;2023-02-18T07:17:11;0.97;;;0.90;;
44862;SDS011;30597;49.628;10.850;2023-02-18T07:19:36;0.73;;;0.73;;
44862;SDS011;30597;49.628;10.850;2023-02-18T07:22:02;0.73;;;0.60;;
44862;SDS011;30597;49.628;10.850;2023-02-18T07:24:27;1.00;;;0.90;;
44862;SDS011;30597;49.628;10.850;2023-02-18T07:26:53;0.80;;;0.80;;
44862;SDS011;30597;49.628;10.850;2023-02-18T07:29:18;1.00;;;0.90;;
44862;SDS011;30597;49.628;10.850;2023-02-18T07:31:44;0.70;;;0.70;;
44862;SDS011;30597;49.628;10.850;2023-02-18T07:34:10;0.80;;;0.80;;
44862;SDS011;30597;49.628;10.850;2023-02-18T07:36:35;1.00;;;0.90;;
44862;SDS011;30597;49.628;10.850;2023-02-18T07:39:01;1.00;;;0.60;;
44862;SDS011;30597;49.628;10.850;2023-02-18T07:41:26;0.80;;;0.70;;
44862;SDS011;30597;49.628;10.850;2023-02-18T07:43:52;1.00;;;0.90;;
44862;SDS011;30597;49.628;10.850;2023-02-18T07:46:18;0.70;;;0.60;;
44862;SDS011;30597;49.628;10.850;2023-02-18T07:48:43;0.80;;;0.80;;
44862;SDS011;30597;49.628;10.850;2023-02-18T07:51:10;2.10;;;0.90;;
44862;SDS011;30597;49.628;10.850;2023-02-18T07:53:37;0.90;;;0.80;;
44862;SDS011;30597;49.628;10.850;2023-02-18T07:56:03;1.10;;;0.80;;
44862;SDS011;30597;49.628;10.850;2023-02-18T07:58:30;1.03;;;0.80;;
44862;SDS011;30597;49.628;10.850;2023-02-18T08:00:57;1.10;;;1.00;;
44862;SDS011;30597;49.628;10.850;2023-02-18T08:03:24;1.10;;;1.03;;
44862;SDS011;30597;49.628;10.850;2023-02-18T08:05:55;1.20;;;1.10;;
44862;SDS011;30597;49.628;10.850;2023-02-18T08:08:22;0.90;;;0.80;;
44862;SDS011;30597;49.628;10.850;2023-02-18T08:10:49;1.23;;;1.13;;
44862;SDS011;30597;49.628;10.850;2023-02-18T08:13:16;1.10;;;1.00;;
44862;SDS011;30597;49.628;10.850;2023-02-18T08:15:42;1.13;;;0.90;;
44862;SDS011;30597;49.628;10.850;2023-02-18T08:18:12;1.23;;;1.10;;
44862;SDS011;30597;49.628;10.850;2023-02-18T08:20:43;1.30;;;1.10;;
44862;SDS011;30597;49.628;10.850;2023-02-18T08:23:11;1.60;;;1.47;;
44862;SDS011;30597;49.628;10.850;2023-02-18T08:25:37;1.30;;;1.20;;
44862;SDS011;30597;49.628;10.850;2023-02-18T08:28:03;1.40;;;1.30;;
44862;SDS011;30597;49.628;10.850;2023-02-18T08:30:28;2.07;;;1.50;;
44862;SDS011;30597;49.628;10.850;2023-02-18T08:32:54;1.40;;;1.30;;
44862;SDS011;30597;49.628;10.850;2023-02-18T08:35:20;2.13;;;1.37;;
44862;SDS011;30597;49.628;10.850;2023-02-18T08:37:45;1.47;;;1.30;;
44862;SDS011;30597;49.628;10.850;2023-02-18T08:40:11;1.70;;;1.60;;
44862;SDS011;30597;49.628;10.850;2023-02-18T08:42:38;1.53;;;1.43;;
44862;SDS011;30597;49.628;10.850;2023-02-18T08:45:04;1.50;;;1.40;;
44862;SDS011;30597;49.628;10.850;2023-02-18T08:47:30;1.40;;;1.30;;
44862;SDS011;30597;49.628;10.850;2023-02-18T08:49:56;1.67;;;1.57;;
44862;SDS011;30597;49.628;10.850;2023-02-18T08:52:21;2.03;;;1.60;;
44862;SDS011;30597;49.628;10.850;2023-02-18T08:54:47;2.27;;;2.07;;
44862;SDS011;30597;49.628;10.850;2023-02-18T08:57:12;2.63;;;2.00;;
44862;SDS011;30597;49.628;10.850;2023-02-18T08:59:38;1.77;;;1.60;;
44862;SDS011;30597;49.628;10.850;2023-02-18T09:02:04;2.17;;;1.90;;
44862;SDS011;30597;49.628;10.850;2023-02-18T09:04:29;2.23;;;1.87;;
44862;SDS011;30597;49.628;10.850;2023-02-18T09:06:55;2.00;;;1.80;;
44862;SDS011;30597;49.628;10.850;2023-02-18T09:09:21;2.33;;;2.10;;
44862;SDS011;30597;49.628;10.850;2023-02-18T09:11:46;2.53;;;2.33;;
44862;SDS011;30597;49.628;10.850;2023-02-18T09:14:12;2.07;;;1.90;;
44862;SDS011;30597;49.628;10.850;2023-02-18T09:16:38;2.33;;;2.10;;
44862;SDS011;30597;49.628;10.850;2023-02-18T09:19:05;2.20;;;1.93;;
44862;SDS011;30597;49.628;10.850;2023-02-18T09:21:31;2.60;;;2.40;;
44862;SDS011;30597;49.628;10.850;2023-02-18T09:23:57;2.93;;;2.30;;
44862;SDS011;30597;49.628;10.850;2023-02-18T09:26:23;1.80;;;1.70;;
44862;SDS011;30597;49.628;10.850;2023-02-18T09:28:50;2.83;;;2.27;;
44862;SDS011;30597;49.628;10.850;2023-02-18T09:31:18;2.03;;;1.83;;
44862;SDS011;30597;49.628;10.850;2023-02-18T09:33:48;1.80;;;1.67;;
44862;SDS011;30597;49.628;10.850;2023-02-18T09:36:18;2.30;;;1.73;;
44862;SDS011;30597;49.628;10.850;2023-02-18T09:38:47;2.20;;;2.00;;
44862;SDS011;30597;49.628;10.850;2023-02-18T09:41:14;1.80;;;1.70;;
44862;SDS011;30597;49.628;10.850;2023-02-18T09:43:58;1.93;;;1.70;;
44862;SDS011;30597;49.628;10.850;2023-02-18T09:46:40;1.90;;;1.80;;
44862;SDS011;30597;49.628;10.850;2023-02-18T09:49:15;1.60;;;1.47;;
44862;SDS011;30597;49.628;10.850;2023-02-18T09:51:43;2.40;;;2.20;;
44862;SDS011;30597;49.628;10.850;2023-02-18T09:54:10;2.07;;;1.87;;
44862;SDS011;30597;49.628;10.850;2023-02-18T09:56:38;1.50;;;1.33;;
44862;SDS011;30597;49.628;10.850;2023-02-18T09:59:09;2.03;;;1.90;;
44862;SDS011;30597;49.628;10.850;2023-02-18T10:01:38;2.23;;;2.00;;
44862;SDS011;30597;49.628;10.850;2023-02-18T10:04:17;1.93;;;1.73;;
44862;SDS011;30597;49.628;10.850;2023-02-18T10:06:47;1.90;;;1.70;;
44862;SDS011;30597;49.628;10.850;2023-02-18T10:09:27;2.77;;;1.60;;
44862;SDS011;30597;49.628;10.850;2023-02-18T10:11:59;2.37;;;1.60;;
44862;SDS011;30597;49.628;10.850;2023-02-18T10:14:43;1.93;;;1.83;;
44862;SDS011;30597;49.628;10.850;2023-02-18T10:17:13;2.20;;;2.00;;
44862;SDS011;30597;49.628;10.850;2023-02-18T10:19:41;1.70;;;1.60;;
44862;SDS011;30597;49.628;10.850;2023-02-18T10:22:11;1.50;;;1.40;;
44862;SDS011;30597;49.628;10.850;2023-02-18T10:24:39;1.63;;;1.53;;
44862;SDS011;30597;49.628;10.850;2023-02-18T10:27:08;2.03;;;1.83;;
44862;SDS011;30597;49.628;10.850;2023-02-18T10:29:39;2.10;;;1.90;;
44862;SDS011;30597;49.628;10.850;2023-02-18T10:32:06;1.90;;;1.57;;
44862;SDS011;30597;49.628;10.850;2023-02-18T10:43:13;1.60;;;1.50;;
44862;SDS011;30597;49.628;10.850;2023-02-18T10:48:44;2.50;;;1.87;;
44862;SDS011;30597;49.628;10.850;2023-02-18T10:51:30;2.50;;;2.30;;
44862;SDS011;30597;49.628;10.850;2023-02-18T10:53:58;2.30;;;1.90;;
44862;SDS011;30597;49.628;10.850;2023-02-18T10:56:32;2.70;;;2.30;;
44862;SDS011;30597;49.628;10.850;2023-02-18T11:02:22;2.73;;;2.40;;
44862;SDS011;30597;49.628;10.850;2023-02-18T11:04:42;2.30;;;2.20;;
44862;SDS011;30597;49.628;10.850;2023-02-18T11:09:51;2.33;;;2.13;;
44862;SDS011;30597;49.628;10.850;2023-02-18T11:12:21;3.37;;;1.90;;
44862;SDS011;30597;49.628;10.850;2023-02-18T11:14:50;2.87;;;2.23;;
44862;SDS011;30597;49.628;10.850;2023-02-18T11:17:42;2.20;;;1.70;;
44862;SDS011;30597;49.628;10.850;2023-02-18T11:20:21;2.77;;;2.30;;
44862;SDS011;30597;49.628;10.850;2023-02-18T11:22:57;2.33;;;1.60;;
44862;SDS011;30597;49.628;10.850;2023-02-18T11:25:32;2.30;;;2.10;;
44862;SDS011;30597;49.628;10.850;2023-02-18T11:28:01;3.70;;;2.40;;
44862;SDS011;30597;49.628;10.850;2023-02-18T11:30:55;4.60;;;2.00;;
44862;SDS011;30597;49.628;10.850;2023-02-18T11:33:31;3.13;;;2.47;;
44862;SDS011;30597;49.628;10.850;2023-02-18T11:36:22;3.23;;;1.93;;
44862;SDS011;30597;49.628;10.850;2023-02-18T11:39:03;2.30;;;2.10;;
44862;SDS011;30597;49.628;10.850;2023-02-18T11:41:36;2.80;;;2.50;;
44862;SDS011;30597;49.628;10.850;2023-02-18T11:44:18;2.20;;;2.00;;
44862;SDS011;30597;49.628;10.850;2023-02-18T11:49:37;2.53;;;2.00;;
44862;SDS011;30597;49.628;10.850;2023-02-18T11:52:04;2.07;;;1.80;;
44862;SDS011;30597;49.628;10.850;2023-02-18T11:57:31;2.30;;;1.80;;
44862;SDS011;30597;49.628;10.850;2023-02-18T11:59:59;2.17;;;1.97;;
44862;SDS011;30597;49.628;10.850;2023-02-18T12:05:04;1.60;;;1.50;;
44862;SDS011;30597;49.628;10.850;2023-02-18T12:07:46;1.83;;;1.70;;
44862;SDS011;30597;49.628;10.850;2023-02-18T12:10:27;3.13;;;1.87;;
44862;SDS011;30597;49.628;10.850;2023-02-18T12:13:02;2.43;;;2.10;;
44862;SDS011;30597;49.628;10.850;2023-02-18T12:21:28;1.80;;;1.70;;
44862;SDS011;30597;49.628;10.850;2023-02-18T12:24:17;1.90;;;1.53;;
44862;SDS011;30597;49.628;10.850;2023-02-18T12:26:59;2.57;;;1.50;;
44862;SDS011;30597;49.628;10.850;2023-02-18T12:29:39;1.90;;;1.80;;
44862;SDS011;30597;49.628;10.850;2023-02-18T12:37:51;2.17;;;1.80;;
44862;SDS011;30597;49.628;10.850;2023-02-18T12:40:39;1.50;;;1.40;;
44862;SDS011;30597;49.628;10.850;2023-02-18T12:49:08;1.60;;;1.30;;
44862;SDS011;30597;49.628;10.850;2023-02-18T12:51:50;2.13;;;1.40;;
44862;SDS011;30597;49.628;10.850;2023-02-18T12:54:42;2.10;;;1.20;;
44862;SDS011;30597;49.628;10.850;2023-02-18T12:57:27;1.37;;;1.10;;
44862;SDS011;30597;49.628;10.850;2023-02-18T13:01:05;2.03;;;1.63;;
44862;SDS011;30597;49.628;10.850;2023-02-18T13:06:06;2.33;;;1.50;;
44862;SDS011;30597;49.628;10.850;2023-02-18T13:14:43;7.33;;;2.13;;
44862;SDS011;30597;49.628;10.850;2023-02-18T13:17:13;2.70;;;1.77;;
44862;SDS011;30597;49.628;10.850;2023-02-18T13:22:12;4.10;;;1.77;;
44862;SDS011;30597;49.628;10.850;2023-02-18T13:24:44;3.63;;;1.60;;
44862;SDS011;30597;49.628;10.850;2023-02-18T13:27:13;2.27;;;1.40;;
44862;SDS011;30597;49.628;10.850;2023-02-18T13:29:51;6.40;;;1.83;;
44862;SDS011;30597;49.628;10.850;2023-02-18T13:32:39;2.00;;;1.80;;
44862;SDS011;30597;49.628;10.850;2023-02-18T13:35:22;2.60;;;1.80;;
44862;SDS011;30597;49.628;10.850;2023-02-18T13:40:44;1.67;;;1.43;;
44862;SDS011;30597;49.628;10.850;2023-02-18T13:43:17;2.40;;;1.63;;
44862;SDS011;30597;49.628;10.850;2023-02-18T13:48:41;2.90;;;1.47;;
44862;SDS011;30597;49.628;10.850;2023-02-18T13:51:09;4.60;;;2.23;;
44862;SDS011;30597;49.628;10.850;2023-02-18T13:53:37;4.00;;;2.00;;
44862;SDS011;30597;49.628;10.850;2023-02-18T13:56:08;2.53;;;1.70;;
44862;SDS011;30597;49.628;10.850;2023-02-18T13:58:47;2.60;;;2.10;;
44862;SDS011;30597;49.628;10.850;2023-02-18T14:04:01;2.77;;;1.50;;
44862;SDS011;30597;49.628;10.850;2023-02-18T14:06:32;2.60;;;1.77;;
44862;SDS011;30597;49.628;10.850;2023-02-18T14:11:55;3.27;;;2.10;;
44862;SDS011;30597;49.628;10.850;2023-02-18T14:19:37;2.17;;;1.77;;
44862;SDS011;30597;49.628;10.850;2023-02-18T14:27:46;1.97;;;1.77;;
44862;SDS011;30597;49.628;10.850;2023-02-18T14:32:49;3.50;;;2.00;;
44862;SDS011;30597;49.628;10.850;2023-02-18T14:37:48;1.80;;;1.70;;
44862;SDS011;30597;49.628;10.850;2023-02-18T14:46:11;1.60;;;1.50;;
44862;SDS011;30597;49.628;10.850;2023-02-18T14:49:15;4.93;;;1.87;;
44862;SDS011;30597;49.628;10.850;2023-02-18T14:52:02;6.07;;;2.20;;
44862;SDS011;30597;49.628;10.850;2023-02-18T14:54:29;4.27;;;1.87;;
44862;SDS011;30597;49.628;10.850;2023-02-18T14:56:59;3.70;;;2.37;;
44862;SDS011;30597;49.628;10.850;2023-02-18T14:59:30;3.53;;;1.87;;
44862;SDS011;30597;49.628;10.850;2023-02-18T15:01:59;3.47;;;2.03;;
44862;SDS011;30597;49.628;10.850;2023-02-18T15:04:25;2.97;;;2.60;;
44862;SDS011;30597;49.628;10.850;2023-02-18T15:07:01;4.77;;;1.87;;
44862;SDS011;30597;49.628;10.850;2023-02-18T15:09:28;4.93;;;2.33;;
44862;SDS011;30597;49.628;10.850;2023-02-18T15:11:58;4.93;;;1.87;;
44862;SDS011;30597;49.628;10.850;2023-02-18T15:14:28;2.77;;;1.90;;
44862;SDS011;30597;49.628;10.850;2023-02-18T15:16:57;2.03;;;1.83;;
44862;SDS011;30597;49.628;10.850;2023-02-18T15:19:25;4.73;;;2.67;;
44862;SDS011;30597;49.628;10.850;2023-02-18T15:21:54;3.73;;;2.00;;
44862;SDS011;30597;49.628;10.850;2023-02-18T15:26:57;7.23;;;1.97;;
44862;SDS011;30597;49.628;10.850;2023-02-18T15:29:28;2.33;;;1.80;;
44862;SDS011;30597;49.628;10.850;2023-02-18T15:31:58;2.93;;;1.80;;
44862;SDS011;30597;49.628;10.850;2023-02-18T15:34:28;5.83;;;1.77;;
44862;SDS011;30597;49.628;10.850;2023-02-18T15:36:59;3.10;;;2.10;;
44862;SDS011;30597;49.628;10.850;2023-02-18T15:39:27;2.60;;;1.50;;
44862;SDS011;30597;49.628;10.850;2023-02-18T15:41:53;3.70;;;1.60;;
44862;SDS011;30597;49.628;10.850;2023-02-18T15:44:43;3.53;;;1.70;;
44862;SDS011;30597;49.628;10.850;2023-02-18T15:47:14;2.20;;;1.60;;
44862;SDS011;30597;49.628;10.850;2023-02-18T15:49:43;2.50;;;2.20;;
44862;SDS011;30597;49.628;10.850;2023-02-18T15:52:11;3.27;;;2.20;;
44862;SDS011;30597;49.628;10.850;2023-02-18T15:54:38;3.67;;;2.17;;
44862;SDS011;30597;49.628;10.850;2023-02-18T15:57:06;3.17;;;2.13;;
44862;SDS011;30597;49.628;10.850;2023-02-18T15:59:42;3.33;;;2.07;;
44862;SDS011;30597;49.628;10.850;2023-02-18T16:02:13;3.60;;;1.87;;
44862;SDS011;30597;49.628;10.850;2023-02-18T16:04:45;3.57;;;2.13;;
44862;SDS011;30597;49.628;10.850;2023-02-18T16:10:08;1.60;;;1.50;;
44862;SDS011;30597;49.628;10.850;2023-02-18T16:13:01;2.90;;;1.30;;
44862;SDS011;30597;49.628;10.850;2023-02-18T16:15:28;3.57;;;1.90;;
44862;SDS011;30597;49.628;10.850;2023-02-18T16:17:55;7.23;;;2.23;;
44862;SDS011;30597;49.628;10.850;2023-02-18T16:20:28;5.30;;;1.97;;
44862;SDS011;30597;49.628;10.850;2023-02-18T16:23:01;3.47;;;1.70;;
44862;SDS011;30597;49.628;10.850;2023-02-18T16:28:05;3.97;;;1.90;;
44862;SDS011;30597;49.628;10.850;2023-02-18T16:30:36;6.23;;;1.80;;
44862;SDS011;30597;49.628;10.850;2023-02-18T16:33:05;7.03;;;1.97;;
44862;SDS011;30597;49.628;10.850;2023-02-18T16:35:31;3.57;;;2.03;;
44862;SDS011;30597;49.628;10.850;2023-02-18T16:37:57;4.60;;;1.50;;
44862;SDS011;30597;49.628;10.850;2023-02-18T16:40:24;3.80;;;1.87;;
44862;SDS011;30597;49.628;10.850;2023-02-18T16:42:55;2.43;;;1.70;;
44862;SDS011;30597;49.628;10.850;2023-02-18T16:45:25;3.43;;;1.40;;
44862;SDS011;30597;49.628;10.850;2023-02-18T16:48:02;2.47;;;1.53;;
44862;SDS011;30597;49.628;10.850;2023-02-18T16:50:29;2.53;;;1.87;;
44862;SDS011;30597;49.628;10.850;2023-02-18T16:52:56;3.80;;;2.23;;
44862;SDS011;30597;49.628;10.850;2023-02-18T16:55:24;4.97;;;1.63;;
44862;SDS011;30597;49.628;10.850;2023-02-18T16:57:51;2.70;;;2.00;;
44862;SDS011;30597;49.628;10.850;2023-02-18T17:00:17;1.93;;;1.70;;
44862;SDS011;30597;49.628;10.850;2023-02-18T17:02:43;2.50;;;1.50;;